sensor_id;sensor_type;location;lat;lon;timestamp;P1;durP1;ratioP1;P2;durP2;ratioP2
27999;SDS011;15328;50.860;10.562;2023-08-12T00:00:12;1.40;;;1.10;;
27999;SDS011;15328;50.860;10.562;2023-08-12T00:05:13;1.40;;;1.10;;
27999;SDS011;15328;50.860;10.562;2023-08-12T00:10:14;1.88;;;1.20;;
27999;SDS011;15328;50.860;10.562;2023-08-12T00:15:15;1.77;;;1.30;;
27999;SDS011;15328;50.860;10.562;2023-08-12T00:20:15;2.75;;;1.60;;
27999;SDS011;15328;50.860;10.562;2023-08-12T00:25:16;1.52;;;1.27;;
27999;SDS011;15328;50.860;10.562;2023-08-12T00:30:16;1.85;;;1.42;;
27999;SDS011;15328;50.860;10.562;2023-08-12T00:35:17;2.10;;;1.40;;
27999;SDS011;15328;50.860;10.562;2023-08-12T00:40:17;1.80;;;1.60;;
27999;SDS011;15328;50.860;10.562;2023-08-12T00:45:18;2.50;;;1.88;;
27999;SDS011;15328;50.860;10.562;2023-08-12T00:50:18;3.72;;;1.73;;
27999;SDS011;15328;50.860;10.562;2023-08-12T00:55:19;2.58;;;1.90;;
27999;SDS011;15328;50.860;10.562;2023-08-12T01:00:21;2.28;;;1.70;;
27999;SDS011;15328;50.860;10.562;2023-08-12T01:05:21;2.28;;;1.70;;
27999;SDS011;15328;50.860;10.562;2023-08-12T01:10:22;2.38;;;2.00;;
27999;SDS011;15328;50.860;10.562;2023-08-12T01:15:25;2.95;;;1.60;;
27999;SDS011;15328;50.860;10.562;2023-08-12T01:20:26;2.15;;;1.73;;
27999;SDS011;15328;50.860;10.562;2023-08-12T01:25:27;1.63;;;1.40;;
27999;SDS011;15328;50.860;10.562;2023-08-12T01:30:27;2.72;;;1.88;;
27999;SDS011;15328;50.860;10.562;2023-08-12T01:40:40;2.25;;;1.50;;
27999;SDS011;15328;50.860;10.562;2023-08-12T01:45:41;2.13;;;1.80;;
27999;SDS011;15328;50.860;10.562;2023-08-12T01:50:43;1.90;;;1.60;;
27999;SDS011;15328;50.860;10.562;2023-08-12T01:55:48;2.05;;;1.60;;
27999;SDS011;15328;50.860;10.562;2023-08-12T02:00:50;1.63;;;1.52;;
27999;SDS011;15328;50.860;10.562;2023-08-12T02:05:50;2.47;;;1.73;;
27999;SDS011;15328;50.860;10.562;2023-08-12T02:10:50;2.60;;;1.83;;
27999;SDS011;15328;50.860;10.562;2023-08-12T02:15:51;1.90;;;1.70;;
27999;SDS011;15328;50.860;10.562;2023-08-12T02:20:51;2.50;;;2.00;;
27999;SDS011;15328;50.860;10.562;2023-08-12T02:25:52;2.70;;;1.90;;
27999;SDS011;15328;50.860;10.562;2023-08-12T02:30:52;2.42;;;1.90;;
27999;SDS011;15328;50.860;10.562;2023-08-12T02:35:53;1.73;;;1.63;;
27999;SDS011;15328;50.860;10.562;2023-08-12T02:40:54;2.30;;;1.90;;
27999;SDS011;15328;50.860;10.562;2023-08-12T02:45:55;2.40;;;2.05;;
27999;SDS011;15328;50.860;10.562;2023-08-12T02:50:55;2.40;;;2.00;;
27999;SDS011;15328;50.860;10.562;2023-08-12T02:55:56;2.03;;;1.77;;
27999;SDS011;15328;50.860;10.562;2023-08-12T03:00:56;3.20;;;2.10;;
27999;SDS011;15328;50.860;10.562;2023-08-12T03:05:57;2.10;;;1.85;;
27999;SDS011;15328;50.860;10.562;2023-08-12T03:10:58;2.80;;;2.22;;
27999;SDS011;15328;50.860;10.562;2023-08-12T03:16:02;2.10;;;1.90;;
27999;SDS011;15328;50.860;10.562;2023-08-12T03:21:05;3.17;;;2.20;;
27999;SDS011;15328;50.860;10.562;2023-08-12T03:26:08;4.28;;;2.17;;
27999;SDS011;15328;50.860;10.562;2023-08-12T03:31:09;2.08;;;1.88;;
27999;SDS011;15328;50.860;10.562;2023-08-12T03:36:09;2.50;;;2.13;;
27999;SDS011;15328;50.860;10.562;2023-08-12T03:41:09;2.70;;;1.90;;
27999;SDS011;15328;50.860;10.562;2023-08-12T03:46:10;2.13;;;1.90;;
27999;SDS011;15328;50.860;10.562;2023-08-12T03:51:10;2.70;;;2.00;;
27999;SDS011;15328;50.860;10.562;2023-08-12T03:56:11;2.50;;;2.10;;
27999;SDS011;15328;50.860;10.562;2023-08-12T04:01:14;3.72;;;2.08;;
27999;SDS011;15328;50.860;10.562;2023-08-12T04:06:15;2.22;;;1.80;;
27999;SDS011;15328;50.860;10.562;2023-08-12T04:11:15;3.10;;;2.10;;
27999;SDS011;15328;50.860;10.562;2023-08-12T04:16:16;3.10;;;2.10;;
27999;SDS011;15328;50.860;10.562;2023-08-12T04:21:16;2.20;;;1.80;;
27999;SDS011;15328;50.860;10.562;2023-08-12T04:26:16;3.57;;;2.10;;
27999;SDS011;15328;50.860;10.562;2023-08-12T04:31:17;3.57;;;1.97;;
27999;SDS011;15328;50.860;10.562;2023-08-12T04:36:17;2.97;;;2.30;;
27999;SDS011;15328;50.860;10.562;2023-08-12T04:41:17;4.00;;;2.43;;
27999;SDS011;15328;50.860;10.562;2023-08-12T04:46:18;3.05;;;2.65;;
27999;SDS011;15328;50.860;10.562;2023-08-12T04:51:19;4.10;;;2.83;;
27999;SDS011;15328;50.860;10.562;2023-08-12T04:56:19;4.70;;;2.80;;
27999;SDS011;15328;50.860;10.562;2023-08-12T05:01:19;3.33;;;2.80;;
27999;SDS011;15328;50.860;10.562;2023-08-12T05:06:20;4.50;;;3.00;;
27999;SDS011;15328;50.860;10.562;2023-08-12T05:11:20;4.40;;;2.73;;
27999;SDS011;15328;50.860;10.562;2023-08-12T05:16:20;4.07;;;2.70;;
27999;SDS011;15328;50.860;10.562;2023-08-12T05:21:21;3.60;;;2.83;;
27999;SDS011;15328;50.860;10.562;2023-08-12T05:26:21;4.17;;;3.00;;
27999;SDS011;15328;50.860;10.562;2023-08-12T05:31:21;4.40;;;2.80;;
27999;SDS011;15328;50.860;10.562;2023-08-12T05:36:22;3.63;;;2.63;;
27999;SDS011;15328;50.860;10.562;2023-08-12T05:41:22;6.03;;;2.70;;
27999;SDS011;15328;50.860;10.562;2023-08-12T05:46:23;4.63;;;2.75;;
27999;SDS011;15328;50.860;10.562;2023-08-12T05:51:23;3.73;;;3.10;;
27999;SDS011;15328;50.860;10.562;2023-08-12T05:56:23;2.73;;;2.30;;
27999;SDS011;15328;50.860;10.562;2023-08-12T06:01:24;3.37;;;2.53;;
27999;SDS011;15328;50.860;10.562;2023-08-12T06:06:24;3.70;;;2.70;;
27999;SDS011;15328;50.860;10.562;2023-08-12T06:11:24;4.20;;;2.70;;
27999;SDS011;15328;50.860;10.562;2023-08-12T06:16:25;3.00;;;2.53;;
27999;SDS011;15328;50.860;10.562;2023-08-12T06:21:25;3.42;;;2.70;;
27999;SDS011;15328;50.860;10.562;2023-08-12T06:26:25;3.40;;;2.40;;
27999;SDS011;15328;50.860;10.562;2023-08-12T06:31:26;8.45;;;6.28;;
27999;SDS011;15328;50.860;10.562;2023-08-12T06:36:26;5.45;;;3.40;;
27999;SDS011;15328;50.860;10.562;2023-08-12T06:41:27;4.10;;;3.00;;
27999;SDS011;15328;50.860;10.562;2023-08-12T06:46:27;4.57;;;3.20;;
27999;SDS011;15328;50.860;10.562;2023-08-12T06:51:28;3.10;;;2.67;;
27999;SDS011;15328;50.860;10.562;2023-08-12T06:56:28;4.70;;;2.90;;
27999;SDS011;15328;50.860;10.562;2023-08-12T07:01:29;3.63;;;3.00;;
27999;SDS011;15328;50.860;10.562;2023-08-12T07:06:29;3.10;;;2.50;;
27999;SDS011;15328;50.860;10.562;2023-08-12T07:11:29;4.67;;;2.80;;
27999;SDS011;15328;50.860;10.562;2023-08-12T07:16:30;3.43;;;2.70;;
27999;SDS011;15328;50.860;10.562;2023-08-12T07:21:30;4.07;;;2.80;;
27999;SDS011;15328;50.860;10.562;2023-08-12T07:26:31;3.17;;;2.87;;
27999;SDS011;15328;50.860;10.562;2023-08-12T07:31:31;3.95;;;3.00;;
27999;SDS011;15328;50.860;10.562;2023-08-12T07:36:32;3.05;;;2.75;;
27999;SDS011;15328;50.860;10.562;2023-08-12T07:41:33;3.83;;;3.10;;
27999;SDS011;15328;50.860;10.562;2023-08-12T07:46:33;3.92;;;2.97;;
27999;SDS011;15328;50.860;10.562;2023-08-12T07:51:33;3.23;;;2.83;;
27999;SDS011;15328;50.860;10.562;2023-08-12T07:56:34;4.57;;;3.07;;
27999;SDS011;15328;50.860;10.562;2023-08-12T08:01:34;8.30;;;3.87;;
27999;SDS011;15328;50.860;10.562;2023-08-12T08:06:34;11.03;;;4.97;;
27999;SDS011;15328;50.860;10.562;2023-08-12T08:11:35;6.22;;;3.40;;
27999;SDS011;15328;50.860;10.562;2023-08-12T08:16:35;4.97;;;3.17;;
27999;SDS011;15328;50.860;10.562;2023-08-12T08:21:36;3.45;;;2.65;;
27999;SDS011;15328;50.860;10.562;2023-08-12T08:26:37;3.37;;;2.40;;
27999;SDS011;15328;50.860;10.562;2023-08-12T08:31:37;4.55;;;3.60;;
27999;SDS011;15328;50.860;10.562;2023-08-12T08:36:37;3.53;;;3.00;;
27999;SDS011;15328;50.860;10.562;2023-08-12T08:41:39;3.50;;;2.70;;
27999;SDS011;15328;50.860;10.562;2023-08-12T08:46:39;3.00;;;2.70;;
27999;SDS011;15328;50.860;10.562;2023-08-12T08:51:41;3.88;;;2.95;;
27999;SDS011;15328;50.860;10.562;2023-08-12T08:56:43;3.30;;;2.83;;
27999;SDS011;15328;50.860;10.562;2023-08-12T09:01:43;3.10;;;2.43;;
27999;SDS011;15328;50.860;10.562;2023-08-12T09:06:46;4.18;;;3.20;;
27999;SDS011;15328;50.860;10.562;2023-08-12T09:11:48;4.95;;;2.75;;
27999;SDS011;15328;50.860;10.562;2023-08-12T09:16:50;5.07;;;3.47;;
27999;SDS011;15328;50.860;10.562;2023-08-12T09:21:54;3.80;;;3.00;;
27999;SDS011;15328;50.860;10.562;2023-08-12T09:26:54;4.07;;;3.00;;
27999;SDS011;15328;50.860;10.562;2023-08-12T09:32:10;6.50;;;3.35;;
27999;SDS011;15328;50.860;10.562;2023-08-12T09:37:12;3.53;;;3.00;;
27999;SDS011;15328;50.860;10.562;2023-08-12T09:42:13;3.60;;;2.78;;
27999;SDS011;15328;50.860;10.562;2023-08-12T09:47:14;5.55;;;3.67;;
27999;SDS011;15328;50.860;10.562;2023-08-12T09:52:14;6.68;;;3.30;;
27999;SDS011;15328;50.860;10.562;2023-08-12T09:57:15;3.30;;;2.60;;
27999;SDS011;15328;50.860;10.562;2023-08-12T10:02:19;3.90;;;2.95;;
27999;SDS011;15328;50.860;10.562;2023-08-12T10:07:20;6.03;;;3.08;;
27999;SDS011;15328;50.860;10.562;2023-08-12T10:12:23;3.70;;;2.72;;
27999;SDS011;15328;50.860;10.562;2023-08-12T10:17:24;3.78;;;2.67;;
27999;SDS011;15328;50.860;10.562;2023-08-12T10:22:29;3.85;;;2.80;;
27999;SDS011;15328;50.860;10.562;2023-08-12T10:27:30;3.40;;;2.58;;
27999;SDS011;15328;50.860;10.562;2023-08-12T10:32:31;4.75;;;2.60;;
27999;SDS011;15328;50.860;10.562;2023-08-12T10:37:32;4.60;;;3.13;;
27999;SDS011;15328;50.860;10.562;2023-08-12T10:42:44;2.63;;;2.20;;
27999;SDS011;15328;50.860;10.562;2023-08-12T10:47:51;3.33;;;2.88;;
27999;SDS011;15328;50.860;10.562;2023-08-12T10:53:22;3.15;;;2.85;;
27999;SDS011;15328;50.860;10.562;2023-08-12T10:58:33;4.10;;;3.00;;
27999;SDS011;15328;50.860;10.562;2023-08-12T11:03:34;3.53;;;2.70;;
27999;SDS011;15328;50.860;10.562;2023-08-12T11:08:34;5.78;;;2.72;;
27999;SDS011;15328;50.860;10.562;2023-08-12T11:13:46;4.55;;;2.72;;
27999;SDS011;15328;50.860;10.562;2023-08-12T11:18:52;3.47;;;2.53;;
27999;SDS011;15328;50.860;10.562;2023-08-12T11:23:54;2.80;;;2.50;;
27999;SDS011;15328;50.860;10.562;2023-08-12T11:28:56;2.92;;;2.35;;
27999;SDS011;15328;50.860;10.562;2023-08-12T11:33:56;2.80;;;2.40;;
27999;SDS011;15328;50.860;10.562;2023-08-12T11:38:58;2.95;;;2.45;;
27999;SDS011;15328;50.860;10.562;2023-08-12T11:43:58;2.72;;;2.40;;
27999;SDS011;15328;50.860;10.562;2023-08-12T11:48:59;3.27;;;2.70;;
27999;SDS011;15328;50.860;10.562;2023-08-12T11:53:59;3.60;;;3.07;;
27999;SDS011;15328;50.860;10.562;2023-08-12T11:58:59;3.00;;;2.70;;
27999;SDS011;15328;50.860;10.562;2023-08-12T12:04:00;2.60;;;2.40;;
27999;SDS011;15328;50.860;10.562;2023-08-12T12:09:02;3.85;;;2.28;;
27999;SDS011;15328;50.860;10.562;2023-08-12T12:14:08;5.50;;;2.30;;
27999;SDS011;15328;50.860;10.562;2023-08-12T12:24:17;2.85;;;2.38;;
27999;SDS011;15328;50.860;10.562;2023-08-12T12:29:18;3.65;;;2.30;;
27999;SDS011;15328;50.860;10.562;2023-08-12T12:34:18;4.10;;;2.67;;
27999;SDS011;15328;50.860;10.562;2023-08-12T12:39:20;4.97;;;2.70;;
27999;SDS011;15328;50.860;10.562;2023-08-12T12:44:21;6.35;;;2.63;;
27999;SDS011;15328;50.860;10.562;2023-08-12T12:49:21;4.77;;;2.80;;
27999;SDS011;15328;50.860;10.562;2023-08-12T12:54:22;3.23;;;2.80;;
27999;SDS011;15328;50.860;10.562;2023-08-12T12:59:22;6.17;;;3.73;;
27999;SDS011;15328;50.860;10.562;2023-08-12T13:04:23;4.93;;;3.30;;
27999;SDS011;15328;50.860;10.562;2023-08-12T13:09:23;5.63;;;3.28;;
27999;SDS011;15328;50.860;10.562;2023-08-12T13:14:24;4.73;;;3.30;;
27999;SDS011;15328;50.860;10.562;2023-08-12T13:19:24;4.88;;;3.25;;
27999;SDS011;15328;50.860;10.562;2023-08-12T13:24:25;3.50;;;3.08;;
27999;SDS011;15328;50.860;10.562;2023-08-12T13:29:25;6.00;;;3.33;;
27999;SDS011;15328;50.860;10.562;2023-08-12T13:34:29;4.20;;;3.17;;
27999;SDS011;15328;50.860;10.562;2023-08-12T13:39:29;4.28;;;2.75;;
27999;SDS011;15328;50.860;10.562;2023-08-12T13:44:29;4.90;;;3.30;;
27999;SDS011;15328;50.860;10.562;2023-08-12T13:49:30;4.43;;;3.20;;
27999;SDS011;15328;50.860;10.562;2023-08-12T13:54:30;3.70;;;3.10;;
27999;SDS011;15328;50.860;10.562;2023-08-12T13:59:31;3.55;;;2.80;;
27999;SDS011;15328;50.860;10.562;2023-08-12T14:04:31;4.03;;;3.60;;
27999;SDS011;15328;50.860;10.562;2023-08-12T14:09:31;4.07;;;3.67;;
27999;SDS011;15328;50.860;10.562;2023-08-12T14:14:33;4.95;;;3.38;;
27999;SDS011;15328;50.860;10.562;2023-08-12T14:19:33;5.50;;;4.10;;
27999;SDS011;15328;50.860;10.562;2023-08-12T14:24:34;5.13;;;3.67;;
27999;SDS011;15328;50.860;10.562;2023-08-12T14:29:34;5.63;;;3.47;;
27999;SDS011;15328;50.860;10.562;2023-08-12T14:34:34;4.90;;;3.93;;
27999;SDS011;15328;50.860;10.562;2023-08-12T14:39:35;4.55;;;3.58;;
27999;SDS011;15328;50.860;10.562;2023-08-12T14:44:35;4.78;;;3.40;;
27999;SDS011;15328;50.860;10.562;2023-08-12T14:49:36;3.10;;;2.80;;
27999;SDS011;15328;50.860;10.562;2023-08-12T14:54:36;3.30;;;2.70;;
27999;SDS011;15328;50.860;10.562;2023-08-12T14:59:36;4.17;;;2.50;;
27999;SDS011;15328;50.860;10.562;2023-08-12T15:04:37;3.05;;;2.00;;
27999;SDS011;15328;50.860;10.562;2023-08-12T15:09:37;3.20;;;2.13;;
27999;SDS011;15328;50.860;10.562;2023-08-12T15:14:38;3.17;;;1.93;;
27999;SDS011;15328;50.860;10.562;2023-08-12T15:19:38;3.20;;;1.83;;
27999;SDS011;15328;50.860;10.562;2023-08-12T15:24:39;3.08;;;1.60;;
27999;SDS011;15328;50.860;10.562;2023-08-12T15:30:00;2.78;;;1.80;;
27999;SDS011;15328;50.860;10.562;2023-08-12T15:35:03;3.47;;;2.10;;
27999;SDS011;15328;50.860;10.562;2023-08-12T15:40:04;3.67;;;1.60;;
27999;SDS011;15328;50.860;10.562;2023-08-12T15:45:05;3.28;;;1.80;;
27999;SDS011;15328;50.860;10.562;2023-08-12T15:50:07;4.75;;;1.92;;
27999;SDS011;15328;50.860;10.562;2023-08-12T15:55:08;3.05;;;1.80;;
27999;SDS011;15328;50.860;10.562;2023-08-12T16:00:08;2.78;;;1.88;;
27999;SDS011;15328;50.860;10.562;2023-08-12T16:05:10;2.10;;;1.55;;
27999;SDS011;15328;50.860;10.562;2023-08-12T16:10:11;5.55;;;1.98;;
27999;SDS011;15328;50.860;10.562;2023-08-12T16:15:12;3.53;;;1.85;;
27999;SDS011;15328;50.860;10.562;2023-08-12T16:20:12;2.73;;;1.60;;
27999;SDS011;15328;50.860;10.562;2023-08-12T16:25:12;1.90;;;1.40;;
27999;SDS011;15328;50.860;10.562;2023-08-12T16:30:13;2.40;;;1.43;;
27999;SDS011;15328;50.860;10.562;2023-08-12T16:35:13;2.42;;;1.60;;
27999;SDS011;15328;50.860;10.562;2023-08-12T16:40:14;2.20;;;1.63;;
27999;SDS011;15328;50.860;10.562;2023-08-12T16:45:14;2.00;;;1.40;;
27999;SDS011;15328;50.860;10.562;2023-08-12T16:50:15;2.30;;;1.63;;
27999;SDS011;15328;50.860;10.562;2023-08-12T16:55:15;2.13;;;1.70;;
27999;SDS011;15328;50.860;10.562;2023-08-12T17:00:16;2.50;;;1.70;;
27999;SDS011;15328;50.860;10.562;2023-08-12T17:05:16;3.20;;;1.77;;
27999;SDS011;15328;50.860;10.562;2023-08-12T17:10:17;2.05;;;1.40;;
27999;SDS011;15328;50.860;10.562;2023-08-12T17:15:17;2.75;;;1.60;;
27999;SDS011;15328;50.860;10.562;2023-08-12T17:20:18;2.50;;;1.42;;
27999;SDS011;15328;50.860;10.562;2023-08-12T17:25:18;3.13;;;1.50;;
27999;SDS011;15328;50.860;10.562;2023-08-12T17:30:18;2.33;;;1.30;;
27999;SDS011;15328;50.860;10.562;2023-08-12T17:35:19;2.25;;;1.52;;
27999;SDS011;15328;50.860;10.562;2023-08-12T17:40:19;2.50;;;1.60;;
27999;SDS011;15328;50.860;10.562;2023-08-12T17:45:22;2.70;;;1.77;;
27999;SDS011;15328;50.860;10.562;2023-08-12T17:50:23;2.40;;;1.40;;
27999;SDS011;15328;50.860;10.562;2023-08-12T17:55:24;2.22;;;1.30;;
27999;SDS011;15328;50.860;10.562;2023-08-12T18:00:25;2.40;;;1.48;;
27999;SDS011;15328;50.860;10.562;2023-08-12T18:05:25;2.43;;;1.40;;
27999;SDS011;15328;50.860;10.562;2023-08-12T18:10:26;2.85;;;1.60;;
27999;SDS011;15328;50.860;10.562;2023-08-12T18:15:26;2.90;;;1.23;;
27999;SDS011;15328;50.860;10.562;2023-08-12T18:20:26;3.67;;;1.50;;
27999;SDS011;15328;50.860;10.562;2023-08-12T18:25:27;3.38;;;1.50;;
27999;SDS011;15328;50.860;10.562;2023-08-12T18:30:27;2.13;;;1.30;;
27999;SDS011;15328;50.860;10.562;2023-08-12T18:35:28;1.42;;;1.17;;
27999;SDS011;15328;50.860;10.562;2023-08-12T18:40:29;2.33;;;1.40;;
27999;SDS011;15328;50.860;10.562;2023-08-12T18:45:32;2.22;;;1.40;;
27999;SDS011;15328;50.860;10.562;2023-08-12T18:50:32;1.63;;;1.35;;
27999;SDS011;15328;50.860;10.562;2023-08-12T18:55:33;2.20;;;1.67;;
27999;SDS011;15328;50.860;10.562;2023-08-12T19:00:33;3.00;;;2.17;;
27999;SDS011;15328;50.860;10.562;2023-08-12T19:05:33;1.83;;;1.33;;
27999;SDS011;15328;50.860;10.562;2023-08-12T19:10:36;2.90;;;1.67;;
27999;SDS011;15328;50.860;10.562;2023-08-12T19:15:39;3.65;;;1.60;;
27999;SDS011;15328;50.860;10.562;2023-08-12T19:20:42;3.25;;;1.42;;
27999;SDS011;15328;50.860;10.562;2023-08-12T19:25:42;2.97;;;1.70;;
27999;SDS011;15328;50.860;10.562;2023-08-12T19:30:47;2.80;;;2.00;;
27999;SDS011;15328;50.860;10.562;2023-08-12T19:35:49;2.20;;;1.50;;
27999;SDS011;15328;50.860;10.562;2023-08-12T19:40:49;2.33;;;1.60;;
27999;SDS011;15328;50.860;10.562;2023-08-12T19:45:51;2.42;;;1.85;;
27999;SDS011;15328;50.860;10.562;2023-08-12T19:50:52;3.60;;;1.40;;
27999;SDS011;15328;50.860;10.562;2023-08-12T19:55:57;3.10;;;1.80;;
27999;SDS011;15328;50.860;10.562;2023-08-12T20:00:58;3.25;;;1.83;;
27999;SDS011;15328;50.860;10.562;2023-08-12T20:05:58;4.37;;;1.97;;
27999;SDS011;15328;50.860;10.562;2023-08-12T20:10:59;4.10;;;2.00;;
27999;SDS011;15328;50.860;10.562;2023-08-12T20:15:59;3.63;;;1.92;;
27999;SDS011;15328;50.860;10.562;2023-08-12T20:20:59;3.90;;;2.10;;
27999;SDS011;15328;50.860;10.562;2023-08-12T20:26:00;2.90;;;1.63;;
27999;SDS011;15328;50.860;10.562;2023-08-12T20:31:01;2.45;;;1.40;;
27999;SDS011;15328;50.860;10.562;2023-08-12T20:36:02;2.58;;;1.50;;
27999;SDS011;15328;50.860;10.562;2023-08-12T20:41:02;4.38;;;3.20;;
27999;SDS011;15328;50.860;10.562;2023-08-12T20:46:03;3.50;;;2.38;;
27999;SDS011;15328;50.860;10.562;2023-08-12T20:51:05;2.47;;;1.70;;
27999;SDS011;15328;50.860;10.562;2023-08-12T20:56:05;1.65;;;1.20;;
27999;SDS011;15328;50.860;10.562;2023-08-12T21:01:06;2.57;;;1.87;;
27999;SDS011;15328;50.860;10.562;2023-08-12T21:06:09;3.05;;;2.03;;
27999;SDS011;15328;50.860;10.562;2023-08-12T21:11:10;2.53;;;1.50;;
27999;SDS011;15328;50.860;10.562;2023-08-12T21:16:11;1.52;;;1.35;;
27999;SDS011;15328;50.860;10.562;2023-08-12T21:21:11;1.80;;;1.50;;
27999;SDS011;15328;50.860;10.562;2023-08-12T21:26:12;1.40;;;1.20;;
27999;SDS011;15328;50.860;10.562;2023-08-12T21:31:13;1.65;;;1.30;;
27999;SDS011;15328;50.860;10.562;2023-08-12T21:36:13;2.05;;;1.20;;
27999;SDS011;15328;50.860;10.562;2023-08-12T21:41:14;1.87;;;1.30;;
27999;SDS011;15328;50.860;10.562;2023-08-12T21:46:14;2.55;;;1.55;;
27999;SDS011;15328;50.860;10.562;2023-08-12T21:51:14;1.57;;;1.47;;
27999;SDS011;15328;50.860;10.562;2023-08-12T21:56:15;2.37;;;1.57;;
27999;SDS011;15328;50.860;10.562;2023-08-12T22:01:15;2.42;;;1.50;;
27999;SDS011;15328;50.860;10.562;2023-08-12T22:06:16;1.73;;;1.20;;
27999;SDS011;15328;50.860;10.562;2023-08-12T22:11:17;1.20;;;1.10;;
27999;SDS011;15328;50.860;10.562;2023-08-12T22:16:17;2.92;;;1.58;;
27999;SDS011;15328;50.860;10.562;2023-08-12T22:21:19;1.98;;;1.50;;
27999;SDS011;15328;50.860;10.562;2023-08-12T22:26:20;3.70;;;2.58;;
27999;SDS011;15328;50.860;10.562;2023-08-12T22:31:21;6.75;;;4.40;;
27999;SDS011;15328;50.860;10.562;2023-08-12T22:36:21;4.33;;;2.80;;
27999;SDS011;15328;50.860;10.562;2023-08-12T22:41:23;3.25;;;2.20;;
27999;SDS011;15328;50.860;10.562;2023-08-12T22:46:23;2.20;;;1.35;;
27999;SDS011;15328;50.860;10.562;2023-08-12T22:51:24;1.60;;;1.33;;
27999;SDS011;15328;50.860;10.562;2023-08-12T22:56:27;1.73;;;1.20;;
27999;SDS011;15328;50.860;10.562;2023-08-12T23:01:27;2.00;;;1.40;;
27999;SDS011;15328;50.860;10.562;2023-08-12T23:06:28;2.20;;;1.75;;
27999;SDS011;15328;50.860;10.562;2023-08-12T23:11:28;3.50;;;2.40;;
27999;SDS011;15328;50.860;10.562;2023-08-12T23:16:28;3.97;;;2.60;;
27999;SDS011;15328;50.860;10.562;2023-08-12T23:21:29;2.92;;;2.42;;
27999;SDS011;15328;50.860;10.562;2023-08-12T23:26:30;2.92;;;2.20;;
27999;SDS011;15328;50.860;10.562;2023-08-12T23:31:30;2.70;;;2.10;;
27999;SDS011;15328;50.860;10.562;2023-08-12T23:36:31;2.42;;;1.90;;
27999;SDS011;15328;50.860;10.562;2023-08-12T23:41:32;5.00;;;3.10;;
27999;SDS011;15328;50.860;10.562;2023-08-12T23:46:32;5.00;;;3.63;;
27999;SDS011;15328;50.860;10.562;2023-08-12T23:51:32;5.07;;;3.70;;
27999;SDS011;15328;50.860;10.562;2023-08-12T23:56:33;3.60;;;2.58;;
